FIN7LP EGLL-EFHK
Flight info
| Callsign | FIN7LP |
|---|---|
| Flight time | N/A |
| Altitude | 41000 |
| Route | BPK Q295 MATCH P144 SAMHO DCT LARGA DCT SOPTO DCT RIRIP Y364 LAKUT |
| Aircraft | A359/H-SDE2E3GHIJ3J4J5LM1ORWXY/LB1D1 |
Departure
| Time | 2026-05-07 15:02 |
|---|---|
| Airport | London Heathrow Airport (EGLL) |
Arrival
| Time | N/A |
|---|---|
| Airport | Helsinki Vantaa Airport (EFHK) |
| Time | Latitude | Longitude | Altitude | Speed | Heading |
|---|---|---|---|---|---|
| 2026-05-07 14:43 | 51.46840 | -0.45445 | 92 ft | 0 kts | 360° |
| 2026-05-07 14:51 | 51.46853 | -0.45445 | 96 ft | 0 kts | 360° |
| 2026-05-07 14:51 | 51.46840 | -0.45445 | 92 ft | 4 kts | 360° |
| 2026-05-07 14:52 | 51.46813 | -0.45445 | 92 ft | 4 kts | 360° |
| 2026-05-07 14:52 | 51.46789 | -0.45445 | 92 ft | 3 kts | 360° |
| 2026-05-07 14:52 | 51.46773 | -0.45443 | 92 ft | 2 kts | 345° |
| 2026-05-07 14:52 | 51.46756 | -0.45430 | 96 ft | 3 kts | 318° |
| 2026-05-07 14:53 | 51.46747 | -0.45406 | 94 ft | 3 kts | 269° |
| 2026-05-07 14:53 | 51.46747 | -0.45402 | 94 ft | 0 kts | 269° |
| 2026-05-07 14:54 | 51.46748 | -0.45425 | 94 ft | 10 kts | 271° |
| 2026-05-07 14:54 | 51.46750 | -0.45643 | 96 ft | 17 kts | 270° |
| 2026-05-07 14:55 | 51.46749 | -0.45828 | 95 ft | 15 kts | 269° |
| 2026-05-07 14:55 | 51.46748 | -0.45941 | 96 ft | 12 kts | 269° |
| 2026-05-07 14:55 | 51.46748 | -0.46104 | 96 ft | 17 kts | 270° |
| 2026-05-07 14:55 | 51.46747 | -0.46298 | 96 ft | 11 kts | 270° |
| 2026-05-07 14:56 | 51.46747 | -0.46437 | 97 ft | 15 kts | 270° |
| 2026-05-07 14:56 | 51.46748 | -0.46616 | 96 ft | 18 kts | 269° |
| 2026-05-07 14:56 | 51.46747 | -0.46846 | 96 ft | 22 kts | 270° |
| 2026-05-07 14:56 | 51.46747 | -0.47087 | 96 ft | 22 kts | 270° |
| 2026-05-07 14:57 | 51.46746 | -0.47341 | 96 ft | 16 kts | 269° |
| 2026-05-07 14:57 | 51.46745 | -0.47511 | 96 ft | 17 kts | 269° |
| 2026-05-07 14:57 | 51.46744 | -0.47723 | 95 ft | 21 kts | 269° |
| 2026-05-07 14:57 | 51.46744 | -0.47895 | 92 ft | 14 kts | 269° |
| 2026-05-07 14:58 | 51.46743 | -0.48079 | 92 ft | 18 kts | 270° |
| 2026-05-07 14:58 | 51.46742 | -0.48260 | 92 ft | 1 kts | 269° |
| 2026-05-07 14:58 | 51.46742 | -0.48263 | 92 ft | 1 kts | 269° |
| 2026-05-07 14:58 | 51.46742 | -0.48292 | 95 ft | 5 kts | 270° |
| 2026-05-07 14:59 | 51.46742 | -0.48377 | 92 ft | 10 kts | 270° |
| 2026-05-07 14:59 | 51.46742 | -0.48514 | 92 ft | 15 kts | 270° |
| 2026-05-07 14:59 | 51.46741 | -0.48638 | 92 ft | 0 kts | 270° |
| 2026-05-07 14:59 | 51.46741 | -0.48647 | 92 ft | 2 kts | 269° |
| 2026-05-07 15:00 | 51.46739 | -0.48695 | 96 ft | 6 kts | 260° |
| 2026-05-07 15:00 | 51.46700 | -0.48745 | 97 ft | 9 kts | 193° |
| 2026-05-07 15:00 | 51.46628 | -0.48756 | 93 ft | 11 kts | 192° |
| 2026-05-07 15:00 | 51.46541 | -0.48782 | 96 ft | 14 kts | 175° |
| 2026-05-07 15:01 | 51.46496 | -0.48750 | 96 ft | 8 kts | 141° |
| 2026-05-07 15:01 | 51.46478 | -0.48648 | 96 ft | 19 kts | 90° |
| 2026-05-07 15:01 | 51.46481 | -0.47971 | 93 ft | 100 kts | 89° |
| 2026-05-07 15:01 | 51.46487 | -0.46477 | 110 ft | 164 kts | 90° |
| 2026-05-07 15:02 | 51.46485 | -0.44583 | 734 ft | 174 kts | 89° |
| 2026-05-07 15:02 | 51.46646 | -0.42649 | 1569 ft | 176 kts | 72° |
| 2026-05-07 15:02 | 51.47322 | -0.40876 | 1909 ft | 200 kts | 51° |
| 2026-05-07 15:02 | 51.48306 | -0.39057 | 2136 ft | 230 kts | 48° |
| 2026-05-07 15:03 | 51.49427 | -0.37033 | 2522 ft | 252 kts | 49° |
| 2026-05-07 15:03 | 51.50591 | -0.34884 | 3204 ft | 258 kts | 49° |
| 2026-05-07 15:03 | 51.51644 | -0.32524 | 3922 ft | 263 kts | 64° |
| 2026-05-07 15:03 | 51.52337 | -0.29786 | 4713 ft | 266 kts | 71° |
| 2026-05-07 15:04 | 51.52943 | -0.26964 | 5451 ft | 269 kts | 71° |
| 2026-05-07 15:04 | 51.53569 | -0.24120 | 5923 ft | 271 kts | 69° |
| 2026-05-07 15:04 | 51.54578 | -0.21548 | 6050 ft | 274 kts | 44° |
| 2026-05-07 15:04 | 51.56165 | -0.19893 | 6051 ft | 273 kts | 24° |
| 2026-05-07 15:05 | 51.57886 | -0.18695 | 6067 ft | 274 kts | 22° |
| 2026-05-07 15:05 | 51.59688 | -0.17660 | 6072 ft | 275 kts | 16° |
| 2026-05-07 15:05 | 51.61531 | -0.16814 | 6076 ft | 275 kts | 15° |
| 2026-05-07 15:05 | 51.63381 | -0.15987 | 6076 ft | 275 kts | 15° |
| 2026-05-07 15:06 | 51.65226 | -0.15154 | 6079 ft | 275 kts | 15° |
| 2026-05-07 15:06 | 51.67077 | -0.14316 | 6073 ft | 275 kts | 15° |
| 2026-05-07 15:06 | 51.68898 | -0.13482 | 6078 ft | 275 kts | 15° |
| 2026-05-07 15:06 | 51.70739 | -0.12633 | 6072 ft | 275 kts | 15° |
| 2026-05-07 15:07 | 51.72573 | -0.11739 | 6070 ft | 275 kts | 19° |
| 2026-05-07 15:07 | 51.74205 | -0.10140 | 6074 ft | 276 kts | 45° |
| 2026-05-07 15:07 | 51.75195 | -0.07535 | 6170 ft | 274 kts | 72° |
| 2026-05-07 15:07 | 51.75677 | -0.04534 | 6627 ft | 277 kts | 80° |
| 2026-05-07 15:08 | 51.75964 | -0.01454 | 7435 ft | 277 kts | 84° |
| 2026-05-07 15:08 | 51.76175 | 0.01648 | 8236 ft | 278 kts | 85° |
| 2026-05-07 15:08 | 51.76368 | 0.04750 | 8996 ft | 282 kts | 85° |
| 2026-05-07 15:08 | 51.76575 | 0.07928 | 9731 ft | 286 kts | 85° |
| 2026-05-07 15:09 | 51.76805 | 0.11150 | 10375 ft | 294 kts | 84° |
| 2026-05-07 15:09 | 51.77061 | 0.14518 | 10675 ft | 311 kts | 84° |
| 2026-05-07 15:09 | 51.77345 | 0.18082 | 10942 ft | 328 kts | 84° |
| 2026-05-07 15:09 | 51.77682 | 0.21791 | 11382 ft | 338 kts | 79° |
| 2026-05-07 15:10 | 51.78540 | 0.25342 | 11959 ft | 344 kts | 60° |
| 2026-05-07 15:10 | 51.79996 | 0.28449 | 12574 ft | 349 kts | 50° |
| 2026-05-07 15:10 | 51.81651 | 0.31277 | 13179 ft | 353 kts | 45° |
| 2026-05-07 15:10 | 51.83440 | 0.34042 | 13801 ft | 356 kts | 44° |
| 2026-05-07 15:11 | 51.85275 | 0.36784 | 14343 ft | 360 kts | 43° |
| 2026-05-07 15:11 | 51.87127 | 0.39551 | 14869 ft | 364 kts | 44° |
| 2026-05-07 15:11 | 51.88985 | 0.42369 | 15431 ft | 368 kts | 44° |
| 2026-05-07 15:11 | 51.90846 | 0.45237 | 15985 ft | 371 kts | 44° |
| 2026-05-07 15:12 | 51.92713 | 0.48149 | 16534 ft | 374 kts | 44° |
| 2026-05-07 15:12 | 51.94576 | 0.51080 | 17047 ft | 378 kts | 44° |
| 2026-05-07 15:12 | 51.96466 | 0.54065 | 17598 ft | 382 kts | 44° |
| 2026-05-07 15:12 | 51.98374 | 0.57085 | 18096 ft | 385 kts | 44° |
| 2026-05-07 15:13 | 52.00305 | 0.60145 | 18617 ft | 388 kts | 44° |
| 2026-05-07 15:13 | 52.02320 | 0.63103 | 19062 ft | 391 kts | 38° |
| 2026-05-07 15:13 | 52.04480 | 0.65801 | 19555 ft | 393 kts | 36° |
| 2026-05-07 15:13 | 52.06699 | 0.68434 | 20031 ft | 396 kts | 35° |
| 2026-05-07 15:14 | 52.08958 | 0.71038 | 20515 ft | 398 kts | 34° |
| 2026-05-07 15:14 | 52.11243 | 0.73635 | 20985 ft | 401 kts | 34° |
| 2026-05-07 15:14 | 52.13535 | 0.76235 | 21453 ft | 403 kts | 34° |
| 2026-05-07 15:14 | 52.15819 | 0.78831 | 21905 ft | 406 kts | 34° |
| 2026-05-07 15:15 | 52.18145 | 0.81485 | 22355 ft | 409 kts | 34° |
| 2026-05-07 15:15 | 52.20478 | 0.84160 | 22786 ft | 412 kts | 34° |
| 2026-05-07 15:15 | 52.22830 | 0.86863 | 23248 ft | 414 kts | 34° |
| 2026-05-07 15:15 | 52.25191 | 0.89585 | 23677 ft | 417 kts | 34° |
| 2026-05-07 15:16 | 52.27578 | 0.92341 | 24057 ft | 419 kts | 35° |
| 2026-05-07 15:16 | 52.29966 | 0.95100 | 24482 ft | 420 kts | 35° |
| 2026-05-07 15:16 | 52.32358 | 0.97868 | 24909 ft | 421 kts | 35° |
| 2026-05-07 15:16 | 52.34728 | 1.00615 | 25275 ft | 425 kts | 36° |
| 2026-05-07 15:17 | 52.37178 | 1.03467 | 25696 ft | 426 kts | 36° |
| 2026-05-07 15:17 | 52.39566 | 1.06245 | 26118 ft | 429 kts | 36° |
| 2026-05-07 15:17 | 52.42006 | 1.09084 | 26581 ft | 430 kts | 36° |
| 2026-05-07 15:17 | 52.44454 | 1.11934 | 27049 ft | 433 kts | 36° |
| 2026-05-07 15:18 | 52.46915 | 1.14806 | 27588 ft | 433 kts | 36° |
| 2026-05-07 15:18 | 52.49379 | 1.17684 | 28111 ft | 436 kts | 37° |
| 2026-05-07 15:18 | 52.51862 | 1.20589 | 28645 ft | 437 kts | 37° |
| 2026-05-07 15:18 | 52.54340 | 1.23491 | 29274 ft | 437 kts | 37° |
| 2026-05-07 15:19 | 52.56792 | 1.26369 | 29789 ft | 440 kts | 37° |
| 2026-05-07 15:19 | 52.59295 | 1.29311 | 30244 ft | 443 kts | 37° |
| 2026-05-07 15:19 | 52.61812 | 1.32274 | 30644 ft | 446 kts | 37° |
| 2026-05-07 15:19 | 52.64352 | 1.35269 | 31029 ft | 450 kts | 37° |
| 2026-05-07 15:20 | 52.66904 | 1.38282 | 31441 ft | 453 kts | 37° |
| 2026-05-07 15:20 | 52.69448 | 1.41290 | 31819 ft | 456 kts | 37° |
| 2026-05-07 15:20 | 52.72034 | 1.44351 | 32220 ft | 459 kts | 37° |
| 2026-05-07 15:20 | 52.74635 | 1.47435 | 32632 ft | 462 kts | 37° |
| 2026-05-07 15:21 | 52.77254 | 1.50543 | 33034 ft | 463 kts | 38° |
| 2026-05-07 15:21 | 52.79868 | 1.53649 | 33546 ft | 463 kts | 38° |
| 2026-05-07 15:21 | 52.82487 | 1.56767 | 33906 ft | 466 kts | 38° |
| 2026-05-07 15:21 | 52.85128 | 1.59918 | 34198 ft | 469 kts | 38° |
| 2026-05-07 15:22 | 52.87783 | 1.63091 | 34435 ft | 473 kts | 38° |
| 2026-05-07 15:22 | 52.90467 | 1.66303 | 34669 ft | 476 kts | 37° |
| 2026-05-07 15:22 | 52.93162 | 1.69533 | 34943 ft | 478 kts | 37° |
| 2026-05-07 15:22 | 52.95829 | 1.72734 | 35262 ft | 479 kts | 37° |
| 2026-05-07 15:23 | 52.98536 | 1.75987 | 35571 ft | 481 kts | 37° |
| 2026-05-07 15:23 | 53.01259 | 1.79264 | 35879 ft | 482 kts | 37° |
| 2026-05-07 15:23 | 53.03976 | 1.82540 | 36212 ft | 483 kts | 37° |
| 2026-05-07 15:23 | 53.06700 | 1.85831 | 36497 ft | 485 kts | 37° |
| 2026-05-07 15:24 | 53.09447 | 1.89154 | 36773 ft | 487 kts | 37° |
| 2026-05-07 15:24 | 53.12154 | 1.92434 | 37033 ft | 489 kts | 37° |
| 2026-05-07 15:24 | 53.17669 | 1.99132 | 37104 ft | 490 kts | 37° |
| 2026-05-07 15:25 | 53.23177 | 2.05842 | 37103 ft | 490 kts | 37° |
| 2026-05-07 15:25 | 53.28693 | 2.12504 | 37108 ft | 488 kts | 35° |
| 2026-05-07 15:26 | 53.34291 | 2.18829 | 37108 ft | 488 kts | 34° |
| 2026-05-07 15:26 | 53.39940 | 2.25154 | 37108 ft | 488 kts | 34° |
| 2026-05-07 15:27 | 53.45562 | 2.31533 | 37113 ft | 488 kts | 35° |
| 2026-05-07 15:27 | 53.51146 | 2.38011 | 37113 ft | 488 kts | 37° |
| 2026-05-07 15:28 | 53.56547 | 2.44844 | 37113 ft | 487 kts | 38° |
| 2026-05-07 15:28 | 53.61953 | 2.51809 | 37116 ft | 487 kts | 38° |
| 2026-05-07 15:29 | 53.67339 | 2.58686 | 37113 ft | 488 kts | 38° |
| 2026-05-07 15:29 | 53.72760 | 2.65576 | 37115 ft | 487 kts | 37° |
| 2026-05-07 15:30 | 53.78190 | 2.72487 | 37121 ft | 486 kts | 38° |
| 2026-05-07 15:30 | 53.83590 | 2.79385 | 37121 ft | 486 kts | 38° |
| 2026-05-07 15:31 | 53.88957 | 2.86268 | 37121 ft | 486 kts | 38° |
| 2026-05-07 15:31 | 53.94347 | 2.93202 | 37118 ft | 486 kts | 38° |
| 2026-05-07 15:32 | 53.99739 | 3.00164 | 37119 ft | 486 kts | 38° |
| 2026-05-07 15:32 | 54.05123 | 3.07138 | 37118 ft | 486 kts | 38° |
| 2026-05-07 15:33 | 54.10510 | 3.14139 | 37116 ft | 486 kts | 38° |
| 2026-05-07 15:33 | 54.15889 | 3.21153 | 37118 ft | 486 kts | 38° |
| 2026-05-07 15:34 | 54.21229 | 3.28139 | 37120 ft | 486 kts | 38° |
| 2026-05-07 15:34 | 54.26607 | 3.35199 | 37118 ft | 486 kts | 38° |
| 2026-05-07 15:35 | 54.31974 | 3.42269 | 37118 ft | 486 kts | 38° |
| 2026-05-07 15:35 | 54.37298 | 3.49305 | 37118 ft | 486 kts | 38° |
| 2026-05-07 15:36 | 54.42664 | 3.56421 | 37121 ft | 486 kts | 38° |
| 2026-05-07 15:36 | 54.48025 | 3.63555 | 37122 ft | 486 kts | 38° |
| 2026-05-07 15:37 | 54.53344 | 3.70656 | 37121 ft | 487 kts | 38° |
| 2026-05-07 15:37 | 54.58694 | 3.77823 | 37119 ft | 487 kts | 38° |
| 2026-05-07 15:38 | 54.63139 | 3.83797 | 37127 ft | 486 kts | 38° |
| 2026-05-07 15:38 | 54.68475 | 3.90991 | 37124 ft | 486 kts | 38° |
| 2026-05-07 15:39 | 54.73802 | 3.98197 | 37121 ft | 486 kts | 38° |
| 2026-05-07 15:39 | 54.79140 | 4.05442 | 37124 ft | 486 kts | 38° |
| 2026-05-07 15:40 | 54.84433 | 4.12658 | 37126 ft | 486 kts | 38° |
| 2026-05-07 15:40 | 54.89292 | 4.20817 | 37126 ft | 486 kts | 46° |
| 2026-05-07 15:41 | 54.93911 | 4.29448 | 37125 ft | 486 kts | 47° |
| 2026-05-07 15:41 | 54.98445 | 4.38090 | 37121 ft | 487 kts | 47° |
| 2026-05-07 15:42 | 55.03019 | 4.46832 | 37124 ft | 487 kts | 47° |
| 2026-05-07 15:42 | 55.07588 | 4.55574 | 37124 ft | 487 kts | 47° |
| 2026-05-07 15:43 | 55.12123 | 4.64271 | 37124 ft | 487 kts | 47° |
| 2026-05-07 15:43 | 55.16685 | 4.73052 | 37124 ft | 487 kts | 48° |
| 2026-05-07 15:44 | 55.21244 | 4.81861 | 37127 ft | 488 kts | 47° |
| 2026-05-07 15:44 | 55.25771 | 4.90639 | 37126 ft | 489 kts | 48° |
| 2026-05-07 15:45 | 55.30282 | 4.99571 | 37126 ft | 489 kts | 52° |
| 2026-05-07 15:45 | 55.34365 | 5.09150 | 37126 ft | 489 kts | 54° |
| 2026-05-07 15:46 | 55.40322 | 5.23659 | 37126 ft | 489 kts | 54° |
| 2026-05-07 15:47 | 55.44286 | 5.33392 | 37128 ft | 489 kts | 54° |
| 2026-05-07 15:47 | 55.48239 | 5.43118 | 37129 ft | 490 kts | 54° |
| 2026-05-07 15:48 | 55.52206 | 5.52909 | 37130 ft | 490 kts | 54° |
| 2026-05-07 15:48 | 55.56151 | 5.62681 | 37128 ft | 489 kts | 54° |
| 2026-05-07 15:49 | 55.60102 | 5.72509 | 37130 ft | 489 kts | 54° |